world map with MYD marked

MYD - Airport

This information may not be accurate or current and is not valid for navigation or flight planning. No warranty of fitness for any purpose is made or implied.

flag of Kenya

Donate via PayPal

Additional information is available on the NEW Great Circle Mapper

Location
City:  Malindi, Kenya
ICAO / IATA:HKML / MYD

Details
Type:Airport (Aerodrome, Airfield)
Latitude:3°13'45"S (-3.229305)
Longitude:40°06'06"E (40.101667)
Datum:WGS 1984
Elevation:80 ft (24 m)
Runways:unknown number
Longest:4600 ft (1402 m)

Time
Timezone:UTC+3 (DST+5)
Local Time:

Weather
METAR:HKML  041300Z 09016KT 9999 FEW024 30/22 Q1009
TAF:HKML  (expired)

Related Locations
Nearby:
Farthest:NHV: 11603 mi / 18674 km
Nuku Hiva, Marquesas Islands, PF

Find:

   beyond  
but within

Other Information
Maps:
Sources:

  


 


Great Circle Mapper   Great Circle Mapper
Great Circle Mapper FAQ   Great Circle Mapper FAQ
  Karl's Home Page
KLSē   KLSē Home
   GC on Facebook
Airlines of the World   Airlines of the World
Donate via PayPal


Copyright © 2004-2019, Karl L. Swartz. All rights reserved.
All trademarks mentioned herein belong to their respective owners.

Please see credits for attribution and copyright information.

Karl Swartz <karl@kls2.com>
  Powered by FreeBSD
Valid HTML 4.01!
Labeled with ICRA
hCard Microformat
Geo Microformat